Licenciado Adolfo Lopez Mateos International Airport
MMTO : now visible

Aeroporto :











RITROVATECI SU...

 
LOGIN :

Iscrizione | Disclaimer

   EN    FR    IT 

 









Sommario :    VFR   VFR Marginale   IFR   IFR Intensivo   IFR Molto Intensivo
Visibilità : 
Base nubi : 
>= 8 km
>= 3000ft
5 / 8 km
1000 / 3000 ft
1500m / 5 km
500 / 1000 ft
800 / 1500m
200 / 500 ft
< 800m
< 200 ft
Simboli :   Temporali  Nebbia  Neve Forte  Precipitazioni Forti  Vento > 20 kt






- Altitudine del aeroporto : 8466 ft
- Codice IATA : TLC


MMTO - Licenciado Adolfo Lopez Mateos International

ULTIMO METAR :
  • 091846Z 00000KT 6SM SCT015TCU BKN080 19/07 A3040 RMK 8/270 HZY

METARs OBSOLETI :
  • 091746Z 32004KT 6SM BKN015TCU OVC080 18/08 A3043 RMK SLP/// 5//// 9// 8/23/ HZY BINOVC
  • 091647Z 33003KT 6SM SCT015 OVC080 16/09 A3043 RMK 8/13/ BINOVC

TAF TAF MMTO
Valido dal 09 a 18 ore il 11 a 00 ore UTC


091646Z 0918/1024 06010KT P6SM BKN015CB OVC070 TX19/0919Z TN10/1012Z
TEMPO 0921/1001 4SM TSRA
BECMG 1002/1003 32010KT
TEMPO 1002/1006 4SM RA
FM100900 00000KT 3SM HZ OVC010
FM101700 00000KT 3SM HZ SCT010 OVC070
FIR MMFR / America del Nord



MetMap, La meteo Aeronautica in un colpo d'occhio ! - Copyright ORBIFLY Dicembre 2007 - Disclaimer

ORBIFLY MET'MAP TEAM :

Programmazione e sviluppo : Alexandra Zaïnal
Concezione : Baudouin d'Aumeries
Aiuto per la programmazione : Marc-Olivier Méhu
Supporto tecnico e logistico : Manuel Goepfert
Aiuto per la traduzione : Arnaldo La Scala

Contatto : metmap@orbifly.com




FONTI E CREDITI :

   NOAA       Earth
Advisory